createdAt,value
2022-08-21T00:06:55.572Z,20.34
2022-08-21T00:17:03.778Z,20.33
2022-08-21T00:27:11.161Z,20.31
2022-08-21T00:37:18.529Z,20.30
2022-08-21T00:47:24.852Z,20.33
2022-08-21T00:57:38.600Z,20.31
2022-08-21T01:07:47.718Z,20.24
2022-08-21T01:17:55.029Z,20.18
2022-08-21T01:28:09.114Z,20.20
2022-08-21T01:38:16.210Z,20.13
2022-08-21T01:48:23.389Z,20.09
2022-08-21T01:58:30.523Z,20.05
2022-08-21T02:08:38.300Z,20.11
2022-08-21T02:18:46.049Z,20.09
2022-08-21T02:28:53.527Z,20.10
2022-08-21T02:39:00.740Z,20.05
2022-08-21T02:49:08.131Z,20.03
2022-08-21T02:59:15.360Z,20.04
2022-08-21T03:09:22.669Z,20.06
2022-08-21T03:19:30.056Z,20.09
2022-08-21T03:29:37.116Z,20.11
2022-08-21T03:39:45.890Z,20.08
2022-08-21T03:49:52.807Z,20.11
2022-08-21T04:10:07.738Z,20.03
2022-08-21T04:20:13.125Z,19.96
2022-08-21T04:30:28.312Z,19.91
2022-08-21T04:40:36.173Z,19.90
2022-08-21T04:50:48.849Z,19.91
2022-08-21T05:00:54.068Z,19.93
2022-08-21T05:11:01.440Z,19.94
2022-08-21T05:21:08.960Z,19.87
2022-08-21T05:31:15.264Z,19.86
2022-08-21T05:41:22.469Z,19.89
2022-08-21T05:51:29.894Z,19.88
2022-08-21T06:01:37.571Z,19.93
2022-08-21T06:11:44.756Z,20.09
2022-08-21T06:21:51.875Z,20.42
2022-08-21T06:31:59.150Z,20.50
2022-08-21T06:42:10.126Z,20.55
2022-08-21T06:52:18.367Z,20.85
2022-08-21T07:02:25.479Z,21.17
2022-08-21T07:12:32.914Z,21.27
2022-08-21T07:22:40.608Z,21.29
2022-08-21T07:32:50.364Z,21.19
2022-08-21T07:42:57.824Z,21.18
2022-08-21T07:53:05.068Z,21.24
2022-08-21T08:03:12.847Z,21.29
2022-08-21T08:13:19.244Z,21.26
2022-08-21T08:23:26.574Z,20.82
2022-08-21T08:33:32.528Z,20.57
2022-08-21T08:43:41.896Z,20.67
2022-08-21T08:53:49.773Z,21.00
2022-08-21T09:03:57.978Z,21.39
2022-08-21T09:14:02.958Z,22.01
2022-08-21T09:24:20.722Z,22.71
2022-08-21T09:34:30.145Z,23.22
2022-08-21T09:44:39.740Z,23.42
2022-08-21T09:54:51.213Z,23.53
2022-08-21T10:05:02.065Z,23.94
2022-08-21T10:15:08.905Z,23.97
2022-08-21T10:25:16.523Z,23.52
2022-08-21T10:35:21.362Z,23.24
2022-08-21T10:45:30.401Z,23.09
2022-08-21T10:55:43.921Z,22.98
2022-08-21T11:05:52.648Z,22.70
2022-08-21T11:15:56.060Z,22.53
2022-08-21T11:26:17.414Z,22.29
2022-08-21T11:36:22.577Z,22.37
2022-08-21T11:46:30.386Z,22.50
2022-08-21T12:06:46.575Z,22.77
2022-08-21T12:16:53.852Z,22.61
2022-08-21T12:27:15.410Z,22.46
2022-08-21T12:37:23.987Z,22.24
2022-08-21T12:47:29.750Z,22.07
2022-08-21T12:57:42.923Z,21.96
2022-08-21T13:07:52.489Z,21.91
2022-08-21T13:17:59.199Z,21.71
2022-08-21T13:28:10.433Z,21.44
2022-08-21T13:38:18.481Z,21.11
2022-08-21T13:48:28.726Z,20.81
2022-08-21T13:58:44.142Z,20.57
2022-08-21T14:08:50.761Z,20.32
2022-08-21T14:19:09.409Z,20.03
2022-08-21T14:29:18.841Z,19.66
2022-08-21T14:39:25.890Z,19.22
2022-08-21T14:49:33.709Z,18.95
2022-08-21T14:59:41.725Z,18.80
2022-08-21T15:09:48.224Z,18.71
2022-08-21T15:19:55.373Z,18.60
2022-08-21T15:30:03.560Z,18.55
2022-08-21T15:40:14.350Z,18.46
2022-08-21T15:50:22.944Z,18.39
2022-08-21T16:00:30.067Z,18.29
2022-08-21T16:10:39.042Z,18.28
2022-08-21T16:20:45.131Z,18.22
2022-08-21T16:30:53.813Z,18.11
2022-08-21T16:40:59.451Z,18.10
2022-08-21T16:51:07.374Z,18.03
2022-08-21T17:01:17.797Z,17.98
2022-08-21T17:11:37.719Z,17.93
2022-08-21T17:21:45.994Z,17.92
2022-08-21T17:31:50.903Z,17.91
2022-08-21T17:42:03.110Z,17.94
2022-08-21T17:52:10.768Z,17.95
2022-08-21T18:02:20.422Z,17.96
2022-08-21T18:12:26.772Z,17.99
2022-08-21T18:22:32.997Z,18.03
2022-08-21T18:32:40.613Z,18.02
2022-08-21T18:42:55.520Z,18.04
2022-08-21T18:53:07.939Z,18.05
2022-08-21T19:03:26.604Z,18.10
2022-08-21T19:13:33.615Z,18.16
2022-08-21T19:23:42.467Z,18.19
2022-08-21T19:34:01.610Z,18.29
2022-08-21T19:44:12.609Z,18.40
2022-08-21T19:54:28.226Z,18.48
2022-08-21T20:04:37.041Z,18.57
2022-08-21T20:14:42.703Z,18.63
2022-08-21T20:24:50.609Z,18.66
2022-08-21T20:34:59.048Z,18.65
2022-08-21T20:45:08.611Z,18.63
2022-08-21T20:55:28.983Z,18.60
2022-08-21T21:05:38.168Z,18.54
2022-08-21T21:15:48.888Z,18.54
2022-08-21T21:26:05.295Z,18.55
2022-08-21T21:36:13.127Z,18.55
2022-08-21T21:46:28.027Z,18.54
2022-08-21T21:56:33.720Z,18.54
2022-08-21T22:06:51.395Z,18.51
2022-08-21T22:16:59.906Z,18.48
2022-08-21T22:27:11.629Z,18.43
2022-08-21T22:37:18.065Z,18.37
2022-08-21T22:47:33.712Z,18.31
2022-08-21T22:57:41.361Z,18.29
2022-08-21T23:07:50.149Z,18.31
2022-08-21T23:18:00.125Z,18.29
2022-08-21T23:28:11.823Z,18.25
2022-08-21T23:38:23.983Z,18.19
2022-08-21T23:48:34.512Z,18.15
2022-08-21T23:58:42.620Z,18.14
